Airfield :
LOGIN :

Register | Disclaimer

   EN    FR    IT 

 










Legend :    VFR   Marginal VFR   IFR   Intensive IFR   Very Intensive IFR
Visi :
Ceiling :
>= 8 km
>= 3000ft
5 to 8 km
1000 to 3000 ft
1500m to 5 km
500 to 1000 ft
800 to 1500m
200 to 500 ft
< 800m
< 200 ft
Symbols :   Thunderstorms  Fog  Heavy snow  Heavy precipitations  Wind > 20 kt
SIGMETs :     Misc.  Thunderstorms  Icing  Turbulence  Mountain Waves  Volcanic Ashes






- Airport Elevation : 464 ft
- IATA code : EVX


LFOE - Evreux

CURRENT METAR :
  • 080200Z AUTO 22016KT 9999 OVC019 10/07 Q1012

EXPIRED METARs :
  • 080130Z AUTO 21015KT 9999 OVC020 10/07 Q1013
  • 080100Z AUTO 22015KT 9999 OVC023 10/07 Q1013
  • 080030Z AUTO 23013KT 9999 OVC022 10/07 Q1014
  • 080000Z AUTO 23012KT 200V260 9999 BKN019 OVC027 10/08 Q1014
  • 072330Z AUTO 20010KT 9999 BKN016 OVC023 10/08 Q1015

TAF TAF LFOE
Valid from the 07 at 15:00 until the 08 at 15:00 UTC


071400Z 0715/0815 24010KT 9999 BKN020 BKN030
TEMPO 0716/0724 BKN010 BKN020
BECMG 0801/0803 23015G25KT
BECMG 0804/0806 23020G30KT 4000 -RA BKN009 OVC015
BECMG 0810/0812 27020G30KT 9999 NSW BKN025 BKN040



MET'MAP, your aeronautical weather chart ! - Copyright ORBIFLY December 2007 - Disclaimer

ORBIFLY MET'MAP TEAM :

Programming & Development : Alexandra Zaïnal
Concept & original design : Baudouin d'Aumeries
Assistance for programming : Marc-Olivier Méhu
Technical & hardware support : Manuel Goepfert

Contact : metmap@orbifly.com




SOURCES & CREDITS :

   NOAA